sensor_id;sensor_type;location;lat;lon;timestamp;temperature;humidity
516;DHT22;244;48.508;9.052;2024-01-30T00:00:02;2.40;19.50
516;DHT22;244;48.508;9.052;2024-01-30T00:02:30;2.50;19.60
516;DHT22;244;48.508;9.052;2024-01-30T00:04:57;2.50;19.50
516;DHT22;244;48.508;9.052;2024-01-30T00:07:25;2.50;19.50
516;DHT22;244;48.508;9.052;2024-01-30T00:09:52;2.50;19.60
516;DHT22;244;48.508;9.052;2024-01-30T00:12:19;2.40;19.50
516;DHT22;244;48.508;9.052;2024-01-30T00:14:46;2.40;19.50
516;DHT22;244;48.508;9.052;2024-01-30T00:17:14;2.40;19.50
516;DHT22;244;48.508;9.052;2024-01-30T00:19:40;2.40;19.50
516;DHT22;244;48.508;9.052;2024-01-30T00:22:07;2.40;19.50
516;DHT22;244;48.508;9.052;2024-01-30T00:24:36;2.40;19.50
516;DHT22;244;48.508;9.052;2024-01-30T00:27:03;2.40;19.50
516;DHT22;244;48.508;9.052;2024-01-30T00:29:30;2.40;19.50
516;DHT22;244;48.508;9.052;2024-01-30T00:31:59;2.40;19.50
516;DHT22;244;48.508;9.052;2024-01-30T00:34:26;2.40;19.50
516;DHT22;244;48.508;9.052;2024-01-30T00:36:52;2.30;19.40
516;DHT22;244;48.508;9.052;2024-01-30T00:39:19;2.30;19.40
516;DHT22;244;48.508;9.052;2024-01-30T00:41:48;2.30;19.40
516;DHT22;244;48.508;9.052;2024-01-30T00:44:15;2.30;19.40
516;DHT22;244;48.508;9.052;2024-01-30T00:46:41;2.30;19.40
516;DHT22;244;48.508;9.052;2024-01-30T00:49:08;2.40;19.50
516;DHT22;244;48.508;9.052;2024-01-30T00:51:35;2.40;19.50
516;DHT22;244;48.508;9.052;2024-01-30T00:54:02;2.40;19.50
516;DHT22;244;48.508;9.052;2024-01-30T00:56:29;2.40;20.10
516;DHT22;244;48.508;9.052;2024-01-30T00:58:57;2.40;19.50
516;DHT22;244;48.508;9.052;2024-01-30T01:01:26;2.40;19.50
516;DHT22;244;48.508;9.052;2024-01-30T01:03:53;2.40;19.50
516;DHT22;244;48.508;9.052;2024-01-30T01:06:19;2.40;19.50
516;DHT22;244;48.508;9.052;2024-01-30T01:08:46;2.40;19.50
516;DHT22;244;48.508;9.052;2024-01-30T01:11:13;2.40;19.50
516;DHT22;244;48.508;9.052;2024-01-30T01:13:40;2.40;19.70
516;DHT22;244;48.508;9.052;2024-01-30T01:16:08;2.30;19.40
516;DHT22;244;48.508;9.052;2024-01-30T01:18:35;2.30;19.40
516;DHT22;244;48.508;9.052;2024-01-30T01:21:02;2.30;19.40
516;DHT22;244;48.508;9.052;2024-01-30T01:23:29;2.30;19.40
516;DHT22;244;48.508;9.052;2024-01-30T01:25:56;2.30;19.40
516;DHT22;244;48.508;9.052;2024-01-30T01:28:25;2.20;19.30
516;DHT22;244;48.508;9.052;2024-01-30T01:30:52;2.20;19.50
516;DHT22;244;48.508;9.052;2024-01-30T01:33:25;2.20;19.60
516;DHT22;244;48.508;9.052;2024-01-30T01:35:52;2.20;19.70
516;DHT22;244;48.508;9.052;2024-01-30T01:38:19;2.20;19.70
516;DHT22;244;48.508;9.052;2024-01-30T01:40:46;2.20;19.80
516;DHT22;244;48.508;9.052;2024-01-30T01:43:13;2.20;19.80
516;DHT22;244;48.508;9.052;2024-01-30T01:45:40;2.20;19.80
516;DHT22;244;48.508;9.052;2024-01-30T01:48:07;2.20;19.80
516;DHT22;244;48.508;9.052;2024-01-30T01:50:36;2.20;19.80
516;DHT22;244;48.508;9.052;2024-01-30T01:53:04;2.20;19.80
516;DHT22;244;48.508;9.052;2024-01-30T01:55:31;2.20;19.80
516;DHT22;244;48.508;9.052;2024-01-30T01:57:59;2.20;19.90
516;DHT22;244;48.508;9.052;2024-01-30T02:00:26;2.20;19.80
516;DHT22;244;48.508;9.052;2024-01-30T02:02:54;2.20;19.80
516;DHT22;244;48.508;9.052;2024-01-30T02:05:21;2.20;19.80
516;DHT22;244;48.508;9.052;2024-01-30T02:07:56;2.20;19.80
516;DHT22;244;48.508;9.052;2024-01-30T02:10:23;2.20;19.80
516;DHT22;244;48.508;9.052;2024-01-30T02:12:50;2.10;19.70
516;DHT22;244;48.508;9.052;2024-01-30T02:15:17;2.10;19.70
516;DHT22;244;48.508;9.052;2024-01-30T02:17:44;2.10;19.80
516;DHT22;244;48.508;9.052;2024-01-30T02:20:11;2.10;19.80
516;DHT22;244;48.508;9.052;2024-01-30T02:22:41;2.10;19.80
516;DHT22;244;48.508;9.052;2024-01-30T02:25:08;2.10;19.80
516;DHT22;244;48.508;9.052;2024-01-30T02:27:35;2.10;19.80
516;DHT22;244;48.508;9.052;2024-01-30T02:30:06;2.00;19.80
516;DHT22;244;48.508;9.052;2024-01-30T02:32:33;2.00;19.80
516;DHT22;244;48.508;9.052;2024-01-30T02:35:00;2.00;19.80
516;DHT22;244;48.508;9.052;2024-01-30T02:37:27;2.00;19.90
516;DHT22;244;48.508;9.052;2024-01-30T02:39:55;2.00;19.80
516;DHT22;244;48.508;9.052;2024-01-30T02:42:22;2.00;19.90
516;DHT22;244;48.508;9.052;2024-01-30T02:44:49;2.00;19.90
516;DHT22;244;48.508;9.052;2024-01-30T02:47:16;2.00;19.90
516;DHT22;244;48.508;9.052;2024-01-30T02:49:43;1.90;19.90
516;DHT22;244;48.508;9.052;2024-01-30T02:52:10;1.90;19.90
516;DHT22;244;48.508;9.052;2024-01-30T02:54:37;1.90;19.90
516;DHT22;244;48.508;9.052;2024-01-30T02:57:05;1.90;19.90
516;DHT22;244;48.508;9.052;2024-01-30T02:59:32;1.90;19.90
516;DHT22;244;48.508;9.052;2024-01-30T03:02:01;1.90;19.90
516;DHT22;244;48.508;9.052;2024-01-30T03:04:30;1.90;19.80
516;DHT22;244;48.508;9.052;2024-01-30T03:06:57;1.80;19.80
516;DHT22;244;48.508;9.052;2024-01-30T03:09:24;1.80;19.90
516;DHT22;244;48.508;9.052;2024-01-30T03:11:51;1.80;19.90
516;DHT22;244;48.508;9.052;2024-01-30T03:14:22;1.80;19.90
516;DHT22;244;48.508;9.052;2024-01-30T03:16:49;1.70;19.80
516;DHT22;244;48.508;9.052;2024-01-30T03:19:16;1.70;19.80
516;DHT22;244;48.508;9.052;2024-01-30T03:21:44;1.70;19.90
516;DHT22;244;48.508;9.052;2024-01-30T03:24:11;1.70;20.00
516;DHT22;244;48.508;9.052;2024-01-30T03:26:38;1.70;20.00
516;DHT22;244;48.508;9.052;2024-01-30T03:29:07;1.70;20.70
516;DHT22;244;48.508;9.052;2024-01-30T03:31:35;1.70;20.20
516;DHT22;244;48.508;9.052;2024-01-30T03:34:02;1.70;20.20
516;DHT22;244;48.508;9.052;2024-01-30T03:36:29;1.60;20.10
516;DHT22;244;48.508;9.052;2024-01-30T03:38:58;1.60;20.10
516;DHT22;244;48.508;9.052;2024-01-30T03:41:25;1.60;20.10
516;DHT22;244;48.508;9.052;2024-01-30T03:43:54;1.60;20.10
516;DHT22;244;48.508;9.052;2024-01-30T03:46:21;1.60;20.10
516;DHT22;244;48.508;9.052;2024-01-30T03:48:49;1.60;20.10
516;DHT22;244;48.508;9.052;2024-01-30T03:51:16;1.60;20.10
516;DHT22;244;48.508;9.052;2024-01-30T03:53:43;1.60;20.10
516;DHT22;244;48.508;9.052;2024-01-30T03:56:11;1.50;20.10
516;DHT22;244;48.508;9.052;2024-01-30T03:58:39;1.50;20.10
516;DHT22;244;48.508;9.052;2024-01-30T04:01:07;1.50;20.20
516;DHT22;244;48.508;9.052;2024-01-30T04:03:33;1.50;20.20
516;DHT22;244;48.508;9.052;2024-01-30T04:06:02;1.40;20.10
516;DHT22;244;48.508;9.052;2024-01-30T04:08:29;1.40;20.10
516;DHT22;244;48.508;9.052;2024-01-30T04:10:56;1.40;20.80
516;DHT22;244;48.508;9.052;2024-01-30T04:13:22;1.40;20.20
516;DHT22;244;48.508;9.052;2024-01-30T04:15:49;1.40;20.20
516;DHT22;244;48.508;9.052;2024-01-30T04:18:16;1.40;20.30
516;DHT22;244;48.508;9.052;2024-01-30T04:20:43;1.40;20.30
516;DHT22;244;48.508;9.052;2024-01-30T04:23:13;1.40;20.30
516;DHT22;244;48.508;9.052;2024-01-30T04:25:42;1.40;20.30
516;DHT22;244;48.508;9.052;2024-01-30T04:28:11;1.40;20.90
516;DHT22;244;48.508;9.052;2024-01-30T04:30:38;1.40;20.40
516;DHT22;244;48.508;9.052;2024-01-30T04:33:05;1.40;20.40
516;DHT22;244;48.508;9.052;2024-01-30T04:35:32;1.40;20.40
516;DHT22;244;48.508;9.052;2024-01-30T04:37:59;1.40;20.40
516;DHT22;244;48.508;9.052;2024-01-30T04:40:27;1.40;20.40
516;DHT22;244;48.508;9.052;2024-01-30T04:42:54;1.40;20.40
516;DHT22;244;48.508;9.052;2024-01-30T04:45:21;1.40;20.40
516;DHT22;244;48.508;9.052;2024-01-30T04:47:48;1.40;20.40
516;DHT22;244;48.508;9.052;2024-01-30T04:50:17;1.40;20.40
516;DHT22;244;48.508;9.052;2024-01-30T04:52:45;1.40;20.30
516;DHT22;244;48.508;9.052;2024-01-30T04:55:14;1.40;20.30
516;DHT22;244;48.508;9.052;2024-01-30T04:57:43;1.40;20.90
516;DHT22;244;48.508;9.052;2024-01-30T05:00:10;1.40;20.30
516;DHT22;244;48.508;9.052;2024-01-30T05:02:38;1.40;20.30
516;DHT22;244;48.508;9.052;2024-01-30T05:05:07;1.40;20.30
516;DHT22;244;48.508;9.052;2024-01-30T05:07:34;1.40;20.40
516;DHT22;244;48.508;9.052;2024-01-30T05:10:01;1.40;20.30
516;DHT22;244;48.508;9.052;2024-01-30T05:12:29;1.40;20.30
516;DHT22;244;48.508;9.052;2024-01-30T05:14:58;1.30;20.20
516;DHT22;244;48.508;9.052;2024-01-30T05:17:25;1.30;20.20
516;DHT22;244;48.508;9.052;2024-01-30T05:19:52;1.30;20.20
516;DHT22;244;48.508;9.052;2024-01-30T05:22:19;1.30;20.20
516;DHT22;244;48.508;9.052;2024-01-30T05:24:46;1.30;20.40
516;DHT22;244;48.508;9.052;2024-01-30T05:27:13;1.30;20.40
516;DHT22;244;48.508;9.052;2024-01-30T05:29:42;1.40;20.50
516;DHT22;244;48.508;9.052;2024-01-30T05:32:10;1.40;20.50
516;DHT22;244;48.508;9.052;2024-01-30T05:34:37;1.30;20.40
516;DHT22;244;48.508;9.052;2024-01-30T05:37:04;1.40;20.40
516;DHT22;244;48.508;9.052;2024-01-30T05:39:31;1.30;20.40
516;DHT22;244;48.508;9.052;2024-01-30T05:41:58;1.30;20.40
516;DHT22;244;48.508;9.052;2024-01-30T05:44:25;1.30;20.50
516;DHT22;244;48.508;9.052;2024-01-30T05:46:52;1.30;20.40
516;DHT22;244;48.508;9.052;2024-01-30T05:49:23;1.30;20.40
516;DHT22;244;48.508;9.052;2024-01-30T05:51:50;1.30;20.40
516;DHT22;244;48.508;9.052;2024-01-30T05:54:17;1.40;20.40
516;DHT22;244;48.508;9.052;2024-01-30T05:56:44;1.40;20.30
516;DHT22;244;48.508;9.052;2024-01-30T05:59:11;1.40;20.30
516;DHT22;244;48.508;9.052;2024-01-30T06:01:45;1.40;20.30
516;DHT22;244;48.508;9.052;2024-01-30T06:04:14;1.40;21.10
516;DHT22;244;48.508;9.052;2024-01-30T06:06:43;1.30;20.40
516;DHT22;244;48.508;9.052;2024-01-30T06:09:12;1.30;20.40
516;DHT22;244;48.508;9.052;2024-01-30T06:11:40;1.30;20.30
516;DHT22;244;48.508;9.052;2024-01-30T06:14:07;1.30;20.30
516;DHT22;244;48.508;9.052;2024-01-30T06:16:34;1.30;20.30
516;DHT22;244;48.508;9.052;2024-01-30T06:19:01;1.30;20.30
516;DHT22;244;48.508;9.052;2024-01-30T06:21:28;1.30;20.40
516;DHT22;244;48.508;9.052;2024-01-30T06:23:57;1.30;20.40
516;DHT22;244;48.508;9.052;2024-01-30T06:26:24;1.30;20.40
516;DHT22;244;48.508;9.052;2024-01-30T06:28:51;1.30;20.40
516;DHT22;244;48.508;9.052;2024-01-30T06:31:18;1.30;20.30
516;DHT22;244;48.508;9.052;2024-01-30T06:33:46;1.30;20.30
516;DHT22;244;48.508;9.052;2024-01-30T06:36:13;1.30;20.30
516;DHT22;244;48.508;9.052;2024-01-30T06:38:40;1.30;20.40
516;DHT22;244;48.508;9.052;2024-01-30T06:41:09;1.30;20.30
516;DHT22;244;48.508;9.052;2024-01-30T06:43:36;1.30;20.20
516;DHT22;244;48.508;9.052;2024-01-30T06:46:04;1.30;20.20
516;DHT22;244;48.508;9.052;2024-01-30T06:48:31;1.30;20.20
516;DHT22;244;48.508;9.052;2024-01-30T06:50:58;1.30;20.20
516;DHT22;244;48.508;9.052;2024-01-30T06:53:27;1.30;20.30
516;DHT22;244;48.508;9.052;2024-01-30T06:55:54;1.30;20.30
516;DHT22;244;48.508;9.052;2024-01-30T06:58:22;1.40;20.40
516;DHT22;244;48.508;9.052;2024-01-30T07:00:52;1.40;20.50
516;DHT22;244;48.508;9.052;2024-01-30T07:03:19;1.40;20.50
516;DHT22;244;48.508;9.052;2024-01-30T07:05:50;1.40;20.50
516;DHT22;244;48.508;9.052;2024-01-30T07:08:17;1.40;20.40
516;DHT22;244;48.508;9.052;2024-01-30T07:10:44;1.50;20.50
516;DHT22;244;48.508;9.052;2024-01-30T07:13:14;1.50;20.50
516;DHT22;244;48.508;9.052;2024-01-30T07:15:43;1.50;20.40
516;DHT22;244;48.508;9.052;2024-01-30T07:18:12;1.60;20.40
516;DHT22;244;48.508;9.052;2024-01-30T07:20:40;1.60;20.40
516;DHT22;244;48.508;9.052;2024-01-30T07:23:11;1.60;20.30
516;DHT22;244;48.508;9.052;2024-01-30T07:25:39;1.70;20.40
516;DHT22;244;48.508;9.052;2024-01-30T07:28:07;1.70;20.40
516;DHT22;244;48.508;9.052;2024-01-30T07:30:40;1.70;20.30
516;DHT22;244;48.508;9.052;2024-01-30T07:33:08;1.80;20.40
516;DHT22;244;48.508;9.052;2024-01-30T07:35:36;1.80;20.30
516;DHT22;244;48.508;9.052;2024-01-30T07:38:03;1.90;20.90
516;DHT22;244;48.508;9.052;2024-01-30T07:40:30;2.00;20.30
516;DHT22;244;48.508;9.052;2024-01-30T07:42:58;2.00;20.30
516;DHT22;244;48.508;9.052;2024-01-30T07:45:27;2.10;20.40
516;DHT22;244;48.508;9.052;2024-01-30T07:47:58;2.20;20.40
516;DHT22;244;48.508;9.052;2024-01-30T07:50:26;2.30;20.40
516;DHT22;244;48.508;9.052;2024-01-30T07:52:55;2.40;20.40
516;DHT22;244;48.508;9.052;2024-01-30T07:55:22;2.50;20.30
516;DHT22;244;48.508;9.052;2024-01-30T07:57:51;2.60;20.30
516;DHT22;244;48.508;9.052;2024-01-30T08:00:19;2.70;20.20
516;DHT22;244;48.508;9.052;2024-01-30T08:02:46;2.70;20.00
516;DHT22;244;48.508;9.052;2024-01-30T08:05:13;2.90;20.00
516;DHT22;244;48.508;9.052;2024-01-30T08:07:42;2.90;19.80
516;DHT22;244;48.508;9.052;2024-01-30T08:10:11;3.00;19.80
516;DHT22;244;48.508;9.052;2024-01-30T08:12:38;3.10;19.90
516;DHT22;244;48.508;9.052;2024-01-30T08:15:05;3.20;20.00
516;DHT22;244;48.508;9.052;2024-01-30T08:17:33;3.20;20.00
516;DHT22;244;48.508;9.052;2024-01-30T08:20:00;3.30;20.00
516;DHT22;244;48.508;9.052;2024-01-30T08:22:29;3.40;20.10
516;DHT22;244;48.508;9.052;2024-01-30T08:24:59;3.50;20.10
516;DHT22;244;48.508;9.052;2024-01-30T08:27:29;3.50;20.20
516;DHT22;244;48.508;9.052;2024-01-30T08:29:56;3.60;20.20
516;DHT22;244;48.508;9.052;2024-01-30T08:32:24;3.70;20.00
516;DHT22;244;48.508;9.052;2024-01-30T08:34:51;3.70;20.00
516;DHT22;244;48.508;9.052;2024-01-30T08:37:17;3.80;19.80
516;DHT22;244;48.508;9.052;2024-01-30T08:39:47;3.80;19.80
516;DHT22;244;48.508;9.052;2024-01-30T08:42:19;3.80;19.80
516;DHT22;244;48.508;9.052;2024-01-30T08:44:48;3.90;19.90
516;DHT22;244;48.508;9.052;2024-01-30T08:47:15;3.90;20.00
516;DHT22;244;48.508;9.052;2024-01-30T08:49:43;3.90;19.80
516;DHT22;244;48.508;9.052;2024-01-30T08:52:10;4.00;19.90
516;DHT22;244;48.508;9.052;2024-01-30T08:54:37;4.00;19.80
516;DHT22;244;48.508;9.052;2024-01-30T08:57:04;4.10;19.80
516;DHT22;244;48.508;9.052;2024-01-30T08:59:32;4.20;19.80
516;DHT22;244;48.508;9.052;2024-01-30T09:02:00;4.30;19.80
516;DHT22;244;48.508;9.052;2024-01-30T09:04:27;4.40;20.40
516;DHT22;244;48.508;9.052;2024-01-30T09:06:54;4.50;19.70
516;DHT22;244;48.508;9.052;2024-01-30T09:09:20;4.60;19.70
516;DHT22;244;48.508;9.052;2024-01-30T09:11:47;4.70;19.70
516;DHT22;244;48.508;9.052;2024-01-30T09:14:14;4.80;19.60
516;DHT22;244;48.508;9.052;2024-01-30T09:16:42;5.00;19.50
516;DHT22;244;48.508;9.052;2024-01-30T09:19:09;5.20;19.40
516;DHT22;244;48.508;9.052;2024-01-30T09:21:36;5.40;19.30
516;DHT22;244;48.508;9.052;2024-01-30T09:24:03;5.50;19.30
516;DHT22;244;48.508;9.052;2024-01-30T09:26:30;5.70;19.20
516;DHT22;244;48.508;9.052;2024-01-30T09:28:57;5.80;19.10
516;DHT22;244;48.508;9.052;2024-01-30T09:31:24;5.90;19.00
516;DHT22;244;48.508;9.052;2024-01-30T09:33:52;6.00;18.90
516;DHT22;244;48.508;9.052;2024-01-30T09:36:19;6.20;18.80
516;DHT22;244;48.508;9.052;2024-01-30T09:38:46;6.30;18.70
516;DHT22;244;48.508;9.052;2024-01-30T09:41:13;6.40;18.40
516;DHT22;244;48.508;9.052;2024-01-30T09:43:42;6.50;18.40
516;DHT22;244;48.508;9.052;2024-01-30T09:46:15;6.60;18.20
516;DHT22;244;48.508;9.052;2024-01-30T09:48:43;6.70;18.50
516;DHT22;244;48.508;9.052;2024-01-30T09:51:14;6.70;17.90
516;DHT22;244;48.508;9.052;2024-01-30T09:53:42;6.80;17.90
516;DHT22;244;48.508;9.052;2024-01-30T09:56:09;6.90;17.80
516;DHT22;244;48.508;9.052;2024-01-30T09:58:36;7.00;17.60
516;DHT22;244;48.508;9.052;2024-01-30T10:01:05;7.00;17.60
516;DHT22;244;48.508;9.052;2024-01-30T10:03:32;7.10;17.60
516;DHT22;244;48.508;9.052;2024-01-30T10:05:59;7.20;17.50
516;DHT22;244;48.508;9.052;2024-01-30T10:08:28;7.20;17.50
516;DHT22;244;48.508;9.052;2024-01-30T10:10:56;7.30;17.50
516;DHT22;244;48.508;9.052;2024-01-30T10:13:23;7.40;17.50
516;DHT22;244;48.508;9.052;2024-01-30T10:15:50;7.60;17.40
516;DHT22;244;48.508;9.052;2024-01-30T10:18:18;7.60;17.30
516;DHT22;244;48.508;9.052;2024-01-30T10:20:45;7.70;17.20
516;DHT22;244;48.508;9.052;2024-01-30T10:23:12;7.80;17.10
516;DHT22;244;48.508;9.052;2024-01-30T10:25:41;7.90;17.10
516;DHT22;244;48.508;9.052;2024-01-30T10:28:08;7.90;17.00
516;DHT22;244;48.508;9.052;2024-01-30T10:30:35;8.00;16.90
516;DHT22;244;48.508;9.052;2024-01-30T10:33:02;8.10;16.80
516;DHT22;244;48.508;9.052;2024-01-30T10:35:29;8.10;16.90
516;DHT22;244;48.508;9.052;2024-01-30T10:37:57;8.20;16.70
516;DHT22;244;48.508;9.052;2024-01-30T10:40:28;8.30;16.60
516;DHT22;244;48.508;9.052;2024-01-30T10:42:56;8.30;16.40
516;DHT22;244;48.508;9.052;2024-01-30T10:45:25;8.30;16.10
516;DHT22;244;48.508;9.052;2024-01-30T10:47:54;8.30;16.10
516;DHT22;244;48.508;9.052;2024-01-30T10:50:24;8.30;16.10
516;DHT22;244;48.508;9.052;2024-01-30T10:52:52;8.40;16.30
516;DHT22;244;48.508;9.052;2024-01-30T10:55:22;8.40;16.20
516;DHT22;244;48.508;9.052;2024-01-30T10:57:49;8.40;16.20
516;DHT22;244;48.508;9.052;2024-01-30T11:00:19;8.60;16.10
516;DHT22;244;48.508;9.052;2024-01-30T11:02:49;8.70;15.90
516;DHT22;244;48.508;9.052;2024-01-30T11:05:23;8.70;15.70
516;DHT22;244;48.508;9.052;2024-01-30T11:07:50;8.80;15.60
516;DHT22;244;48.508;9.052;2024-01-30T11:10:17;8.90;16.20
516;DHT22;244;48.508;9.052;2024-01-30T11:12:46;9.00;15.60
516;DHT22;244;48.508;9.052;2024-01-30T11:15:14;9.00;15.50
516;DHT22;244;48.508;9.052;2024-01-30T11:17:44;9.10;15.30
516;DHT22;244;48.508;9.052;2024-01-30T11:20:11;9.20;15.30
516;DHT22;244;48.508;9.052;2024-01-30T11:22:42;9.30;15.20
516;DHT22;244;48.508;9.052;2024-01-30T11:25:11;9.40;15.20
516;DHT22;244;48.508;9.052;2024-01-30T11:27:39;9.50;15.30
516;DHT22;244;48.508;9.052;2024-01-30T11:30:07;9.70;15.00
516;DHT22;244;48.508;9.052;2024-01-30T11:32:34;9.80;14.90
516;DHT22;244;48.508;9.052;2024-01-30T11:35:05;9.80;14.70
516;DHT22;244;48.508;9.052;2024-01-30T11:37:37;10.00;14.00
516;DHT22;244;48.508;9.052;2024-01-30T11:40:05;10.10;13.90
516;DHT22;244;48.508;9.052;2024-01-30T11:42:32;10.20;13.80
516;DHT22;244;48.508;9.052;2024-01-30T11:45:00;10.30;13.70
516;DHT22;244;48.508;9.052;2024-01-30T11:47:28;10.40;14.40
516;DHT22;244;48.508;9.052;2024-01-30T11:49:55;10.50;13.70
516;DHT22;244;48.508;9.052;2024-01-30T11:52:24;10.60;13.70
516;DHT22;244;48.508;9.052;2024-01-30T11:54:51;10.70;13.50
516;DHT22;244;48.508;9.052;2024-01-30T11:57:18;10.80;13.20
516;DHT22;244;48.508;9.052;2024-01-30T11:59:45;10.80;13.10
516;DHT22;244;48.508;9.052;2024-01-30T12:02:15;10.90;13.20
516;DHT22;244;48.508;9.052;2024-01-30T12:04:43;10.90;13.20
516;DHT22;244;48.508;9.052;2024-01-30T12:07:10;11.00;12.80
516;DHT22;244;48.508;9.052;2024-01-30T12:09:38;11.10;12.60
516;DHT22;244;48.508;9.052;2024-01-30T12:12:07;11.10;12.60
516;DHT22;244;48.508;9.052;2024-01-30T12:14:40;11.20;12.40
516;DHT22;244;48.508;9.052;2024-01-30T12:17:07;11.30;12.40
516;DHT22;244;48.508;9.052;2024-01-30T12:19:35;11.40;12.40
516;DHT22;244;48.508;9.052;2024-01-30T12:22:02;11.50;12.30
516;DHT22;244;48.508;9.052;2024-01-30T12:24:29;11.60;12.20
516;DHT22;244;48.508;9.052;2024-01-30T12:26:58;11.70;12.80
516;DHT22;244;48.508;9.052;2024-01-30T12:29:25;11.70;12.20
516;DHT22;244;48.508;9.052;2024-01-30T12:31:53;11.80;12.30
516;DHT22;244;48.508;9.052;2024-01-30T12:34:20;11.80;12.30
516;DHT22;244;48.508;9.052;2024-01-30T12:36:47;11.90;12.30
516;DHT22;244;48.508;9.052;2024-01-30T12:39:14;11.90;12.90
516;DHT22;244;48.508;9.052;2024-01-30T12:41:41;11.90;12.40
516;DHT22;244;48.508;9.052;2024-01-30T12:44:10;11.90;12.40
516;DHT22;244;48.508;9.052;2024-01-30T12:46:36;12.00;12.30
516;DHT22;244;48.508;9.052;2024-01-30T12:49:03;12.00;12.20
516;DHT22;244;48.508;9.052;2024-01-30T12:51:30;12.00;12.20
516;DHT22;244;48.508;9.052;2024-01-30T12:54:04;12.10;12.00
516;DHT22;244;48.508;9.052;2024-01-30T12:56:31;12.10;12.00
516;DHT22;244;48.508;9.052;2024-01-30T12:58:59;12.10;12.00
516;DHT22;244;48.508;9.052;2024-01-30T13:01:27;12.10;12.60
516;DHT22;244;48.508;9.052;2024-01-30T13:03:54;12.00;11.90
516;DHT22;244;48.508;9.052;2024-01-30T13:06:22;11.90;11.80
516;DHT22;244;48.508;9.052;2024-01-30T13:08:49;11.80;11.80
516;DHT22;244;48.508;9.052;2024-01-30T13:11:16;11.70;11.80
516;DHT22;244;48.508;9.052;2024-01-30T13:13:43;11.70;11.90
516;DHT22;244;48.508;9.052;2024-01-30T13:16:10;11.70;12.10
516;DHT22;244;48.508;9.052;2024-01-30T13:18:38;11.60;12.00
516;DHT22;244;48.508;9.052;2024-01-30T13:21:05;11.60;12.20
516;DHT22;244;48.508;9.052;2024-01-30T13:23:32;11.60;12.10
516;DHT22;244;48.508;9.052;2024-01-30T13:25:59;11.60;12.10
516;DHT22;244;48.508;9.052;2024-01-30T13:28:26;11.60;12.10
516;DHT22;244;48.508;9.052;2024-01-30T13:30:53;11.70;12.20
516;DHT22;244;48.508;9.052;2024-01-30T13:33:20;11.70;12.10
516;DHT22;244;48.508;9.052;2024-01-30T13:35:48;11.80;12.20
516;DHT22;244;48.508;9.052;2024-01-30T13:38:15;11.80;12.00
516;DHT22;244;48.508;9.052;2024-01-30T13:40:42;11.90;12.10
516;DHT22;244;48.508;9.052;2024-01-30T13:43:09;12.00;12.00
516;DHT22;244;48.508;9.052;2024-01-30T13:45:36;12.10;11.90
516;DHT22;244;48.508;9.052;2024-01-30T13:48:03;12.20;11.90
516;DHT22;244;48.508;9.052;2024-01-30T13:50:30;12.30;12.00
516;DHT22;244;48.508;9.052;2024-01-30T13:53:00;12.40;11.90
516;DHT22;244;48.508;9.052;2024-01-30T13:55:27;12.50;11.80
516;DHT22;244;48.508;9.052;2024-01-30T13:57:54;12.60;11.70
516;DHT22;244;48.508;9.052;2024-01-30T14:00:21;12.70;11.60
516;DHT22;244;48.508;9.052;2024-01-30T14:02:48;12.80;11.50
516;DHT22;244;48.508;9.052;2024-01-30T14:05:15;13.00;11.40
516;DHT22;244;48.508;9.052;2024-01-30T14:07:43;13.10;11.20
516;DHT22;244;48.508;9.052;2024-01-30T14:10:12;13.20;11.10
516;DHT22;244;48.508;9.052;2024-01-30T14:12:39;13.30;10.90
516;DHT22;244;48.508;9.052;2024-01-30T14:15:08;13.40;10.80
516;DHT22;244;48.508;9.052;2024-01-30T14:17:36;13.50;10.70
516;DHT22;244;48.508;9.052;2024-01-30T14:20:04;13.60;10.60
516;DHT22;244;48.508;9.052;2024-01-30T14:22:32;13.70;10.60
516;DHT22;244;48.508;9.052;2024-01-30T14:24:59;13.80;10.50
516;DHT22;244;48.508;9.052;2024-01-30T14:27:27;13.80;10.50
516;DHT22;244;48.508;9.052;2024-01-30T14:29:55;13.80;10.40
516;DHT22;244;48.508;9.052;2024-01-30T14:32:22;13.90;10.50
516;DHT22;244;48.508;9.052;2024-01-30T14:34:49;13.90;11.00
516;DHT22;244;48.508;9.052;2024-01-30T14:37:16;13.90;10.30
516;DHT22;244;48.508;9.052;2024-01-30T14:39:42;13.90;10.20
516;DHT22;244;48.508;9.052;2024-01-30T14:42:09;13.90;10.20
516;DHT22;244;48.508;9.052;2024-01-30T14:44:38;13.90;10.20
516;DHT22;244;48.508;9.052;2024-01-30T14:47:05;13.90;10.10
516;DHT22;244;48.508;9.052;2024-01-30T14:49:32;13.90;10.10
516;DHT22;244;48.508;9.052;2024-01-30T14:51:59;13.80;10.00
516;DHT22;244;48.508;9.052;2024-01-30T14:54:26;13.80;10.00
516;DHT22;244;48.508;9.052;2024-01-30T14:56:53;13.80;10.10
516;DHT22;244;48.508;9.052;2024-01-30T14:59:20;13.70;10.10
516;DHT22;244;48.508;9.052;2024-01-30T15:01:48;13.60;10.00
516;DHT22;244;48.508;9.052;2024-01-30T15:04:15;13.50;10.10
516;DHT22;244;48.508;9.052;2024-01-30T15:06:43;13.50;10.10
516;DHT22;244;48.508;9.052;2024-01-30T15:09:13;13.40;10.10
516;DHT22;244;48.508;9.052;2024-01-30T15:11:41;13.30;10.10
516;DHT22;244;48.508;9.052;2024-01-30T15:14:07;13.20;10.20
516;DHT22;244;48.508;9.052;2024-01-30T15:16:34;13.20;10.20
516;DHT22;244;48.508;9.052;2024-01-30T15:19:03;13.10;10.30
516;DHT22;244;48.508;9.052;2024-01-30T15:21:30;13.00;10.30
516;DHT22;244;48.508;9.052;2024-01-30T15:24:02;12.90;10.40
516;DHT22;244;48.508;9.052;2024-01-30T15:26:31;12.80;10.40
516;DHT22;244;48.508;9.052;2024-01-30T15:28:58;12.70;10.50
516;DHT22;244;48.508;9.052;2024-01-30T15:31:25;12.60;10.50
516;DHT22;244;48.508;9.052;2024-01-30T15:33:52;12.50;10.60
516;DHT22;244;48.508;9.052;2024-01-30T15:36:20;12.40;10.60
516;DHT22;244;48.508;9.052;2024-01-30T15:38:47;12.40;10.80
516;DHT22;244;48.508;9.052;2024-01-30T15:41:14;12.20;10.80
516;DHT22;244;48.508;9.052;2024-01-30T15:43:41;12.20;11.00
516;DHT22;244;48.508;9.052;2024-01-30T15:46:08;12.10;11.00
516;DHT22;244;48.508;9.052;2024-01-30T15:48:34;12.00;11.10
516;DHT22;244;48.508;9.052;2024-01-30T15:51:01;11.90;11.20
516;DHT22;244;48.508;9.052;2024-01-30T15:53:30;11.90;11.30
516;DHT22;244;48.508;9.052;2024-01-30T15:55:57;11.80;11.30
516;DHT22;244;48.508;9.052;2024-01-30T15:58:23;11.70;11.40
516;DHT22;244;48.508;9.052;2024-01-30T16:00:50;11.60;11.50
516;DHT22;244;48.508;9.052;2024-01-30T16:03:17;11.50;11.40
516;DHT22;244;48.508;9.052;2024-01-30T16:05:44;11.40;11.40
516;DHT22;244;48.508;9.052;2024-01-30T16:08:11;11.30;11.50
516;DHT22;244;48.508;9.052;2024-01-30T16:10:39;11.20;11.60
516;DHT22;244;48.508;9.052;2024-01-30T16:13:06;11.20;11.80
516;DHT22;244;48.508;9.052;2024-01-30T16:15:33;11.10;12.00
516;DHT22;244;48.508;9.052;2024-01-30T16:18:00;11.00;12.00
516;DHT22;244;48.508;9.052;2024-01-30T16:20:27;10.90;12.00
516;DHT22;244;48.508;9.052;2024-01-30T16:22:54;10.80;12.10
516;DHT22;244;48.508;9.052;2024-01-30T16:25:21;10.70;12.20
516;DHT22;244;48.508;9.052;2024-01-30T16:27:50;10.70;12.30
516;DHT22;244;48.508;9.052;2024-01-30T16:30:16;10.60;12.40
516;DHT22;244;48.508;9.052;2024-01-30T16:32:44;10.50;12.50
516;DHT22;244;48.508;9.052;2024-01-30T16:35:11;10.50;12.60
516;DHT22;244;48.508;9.052;2024-01-30T16:37:38;10.40;12.70
516;DHT22;244;48.508;9.052;2024-01-30T16:40:06;10.30;12.80
516;DHT22;244;48.508;9.052;2024-01-30T16:42:34;10.30;12.90
516;DHT22;244;48.508;9.052;2024-01-30T16:45:02;10.20;13.50
516;DHT22;244;48.508;9.052;2024-01-30T16:47:29;10.20;13.60